Time;durP1;ratioP1;P1;durP2;ratioP2;P2;SDS_P1;SDS_P2;PMS_P1;PMS_P2;Temp;Humidity;BMP_temperature;BMP_pressure;BME280_temperature;BME280_humidity;BME280_pressure;Samples;Min_cycle;Max_cycle;Signal;HPM_P1;HPM_P2
2022/12/16 00:00:18;;;;;;;88.38;54.22;;;;;;;-3.86;100.00;66357.06;5005536;28;20043;-84
2022/12/16 00:02:44;;;;;;;89.20;49.40;;;;;;;-3.79;100.00;66366.41;4996463;28;20042;-84
2022/12/16 00:05:09;;;;;;;90.90;49.30;;;;;;;-3.76;100.00;66369.75;4988293;28;20038;-84
2022/12/16 00:07:35;;;;;;;84.90;46.28;;;;;;;-3.77;100.00;66366.03;4984468;28;20042;-84
2022/12/16 00:10:00;;;;;;;87.93;48.33;;;;;;;-3.75;100.00;66370.88;4987040;28;20117;-82
2022/12/16 00:12:25;;;;;;;86.18;48.72;;;;;;;;;;4989188;28;20042;-82
2022/12/16 00:14:51;;;;;;;86.78;46.92;;;;;;;-3.71;100.00;66377.94;5002565;28;20105;-82
2022/12/16 00:17:16;;;;;;;93.50;50.05;;;;;;;-3.72;100.00;66366.97;4983015;28;20420;-82
2022/12/16 00:19:42;;;;;;;82.53;46.33;;;;;;;-3.72;100.00;66371.63;4988744;28;20034;-82
2022/12/16 00:22:07;;;;;;;87.43;46.72;;;;;;;-3.71;100.00;66372.75;5002795;28;20046;-82
2022/12/16 00:24:32;;;;;;;81.47;47.20;;;;;;;-3.70;100.00;66376.47;4988817;28;20077;-82
2022/12/16 00:26:58;;;;;;;85.60;49.83;;;;;;;-3.70;100.00;66379.06;4988958;28;20121;-82
2022/12/16 00:29:23;;;;;;;88.32;47.58;;;;;;;-3.68;100.00;66376.69;4990100;28;20567;-82
2022/12/16 00:31:48;;;;;;;86.65;45.33;;;;;;;-3.65;100.00;66379.47;5004233;28;20118;-82
2022/12/16 00:34:15;;;;;;;82.38;43.92;;;;;;;-3.64;100.00;66380.59;4987776;28;20082;-83
2022/12/16 00:36:40;;;;;;;82.65;45.25;;;;;;;;;;4987230;28;20104;-82
2022/12/16 00:39:06;;;;;;;79.47;47.17;;;;;;;;;;4987514;28;20042;-82
2022/12/16 00:41:31;;;;;;;80.20;44.88;;;;;;;-3.63;100.00;66384.88;4993228;28;20049;-82
2022/12/16 00:43:56;;;;;;;86.28;45.92;;;;;;;;;;4990244;28;20070;-83
2022/12/16 00:46:21;;;;;;;79.05;42.40;;;;;;;-3.60;100.00;66387.66;5004912;28;20050;-83
2022/12/16 00:48:47;;;;;;;88.35;48.88;;;;;;;-3.58;100.00;66389.91;4989563;28;20053;-82
2022/12/16 00:51:12;;;;;;;83.68;44.38;;;;;;;-3.56;100.00;66389.00;4988160;28;20074;-83
2022/12/16 00:53:37;;;;;;;78.05;40.20;;;;;;;-3.55;100.00;66392.72;4991237;28;20053;-82
2022/12/16 00:56:05;;;;;;;86.63;48.25;;;;;;;-3.54;100.00;66391.22;4986702;28;20035;-83
2022/12/16 00:58:30;;;;;;;81.32;47.08;;;;;;;-3.51;100.00;66394.59;4988749;28;20045;-83
2022/12/16 01:00:55;;;;;;;76.28;41.38;;;;;;;-3.50;100.00;66390.53;4994097;28;20453;-82
2022/12/16 01:03:21;;;;;;;79.80;37.78;;;;;;;-3.50;100.00;66395.72;4990165;28;20050;-83
2022/12/16 01:05:46;;;;;;;88.15;47.45;;;;;;;-3.46;100.00;66400.19;4997465;28;20046;-83
2022/12/16 01:08:12;;;;;;;81.28;46.63;;;;;;;-3.45;100.00;66407.09;5000183;28;20038;-83
2022/12/16 01:10:37;;;;;;;79.55;39.28;;;;;;;-3.48;100.00;66397.94;4990660;28;20041;-83
2022/12/16 01:13:02;;;;;;;82.80;45.30;;;;;;;;;;4989104;28;20070;-83
2022/12/16 01:15:28;;;;;;;81.88;41.70;;;;;;;-3.45;100.00;66409.69;4991837;28;20050;-83
2022/12/16 01:17:53;;;;;;;92.28;47.85;;;;;;;-3.43;100.00;66403.56;4992738;28;20046;-83
2022/12/16 01:20:18;;;;;;;88.10;46.88;;;;;;;;;;4996464;28;20536;-83
2022/12/16 01:22:44;;;;;;;91.95;47.15;;;;;;;-3.42;100.00;66405.25;4995340;28;20097;-83
2022/12/16 01:25:14;;;;;;;89.47;47.72;;;;;;;-3.44;100.00;66405.59;5003752;28;20109;-82
2022/12/16 01:27:39;;;;;;;92.30;50.63;;;;;;;-3.43;100.00;66404.13;4991950;28;20038;-83
2022/12/16 01:30:05;;;;;;;90.15;51.17;;;;;;;-3.42;100.00;66405.25;5006182;28;20045;-83
2022/12/16 01:32:31;;;;;;;87.70;48.08;;;;;;;-3.42;100.00;66407.84;4990820;28;20042;-83
2022/12/16 01:34:57;;;;;;;80.72;38.83;;;;;;;-3.42;100.00;66405.25;4990084;28;20042;-83
2022/12/16 01:37:23;;;;;;;95.35;53.90;;;;;;;-3.40;100.00;66407.47;4999005;28;20405;-83
2022/12/16 01:39:49;;;;;;;86.30;47.63;;;;;;;-3.39;100.00;66410.66;4992038;28;20121;-83
2022/12/16 01:42:17;;;;;;;88.10;53.88;;;;;;;-3.40;100.00;66406.91;4989266;28;20046;-83
2022/12/16 01:44:45;;;;;;;75.33;38.63;;;;;;;-3.38;100.00;66411.22;4991138;28;20046;-83
2022/12/16 01:47:31;;;;;;;85.88;46.47;;;;;;;-3.36;100.00;66411.41;5003939;28;20125;-83
2022/12/16 01:49:59;;;;;;;84.45;45.58;;;;;;;-3.34;100.00;66413.09;5004578;28;20066;-83
2022/12/16 01:52:31;;;;;;;87.95;49.67;;;;;;;;;;4988371;28;20045;-83
2022/12/16 01:55:06;;;;;;;86.68;55.85;;;;;;;-3.36;100.00;66414.03;5004170;28;20038;-83
2022/12/16 01:57:34;;;;;;;91.82;51.78;;;;;;;;;;4971181;28;20053;-83
2022/12/16 02:00:00;;;;;;;87.55;49.30;;;;;;;-3.32;100.00;66415.34;4989922;28;20045;-83
2022/12/16 02:02:26;;;;;;;87.45;51.35;;;;;;;-3.32;100.00;66415.34;4989579;28;20073;-83
2022/12/16 02:07:37;;;;;;;86.10;49.70;;;;;;;-3.34;100.00;66418.84;5003920;28;20109;-84
2022/12/16 02:10:03;;;;;;;85.88;49.60;;;;;;;-3.33;100.00;66414.78;4981476;28;20053;-84
2022/12/16 02:12:48;;;;;;;92.22;52.03;;;;;;;-3.33;100.00;66417.38;4990046;28;20046;-84
2022/12/16 02:15:22;;;;;;;90.03;50.25;;;;;;;-3.35;100.00;66417.72;4971774;28;20212;-84
2022/12/16 02:17:59;;;;;;;91.75;54.47;;;;;;;-3.35;100.00;66411.97;4992683;28;20053;-83
2022/12/16 02:20:36;;;;;;;91.97;54.47;;;;;;;;;;4994069;28;20050;-83
2022/12/16 02:23:39;;;;;;;96.47;57.17;;;;;;;-3.39;100.00;66402.84;5010858;28;20034;-83
2022/12/16 02:26:33;;;;;;;88.70;48.03;;;;;;;-3.38;100.00;66408.63;4996024;28;20097;-83
2022/12/16 02:29:29;;;;;;;96.97;53.38;;;;;;;-3.43;100.00;66406.72;4993610;28;20050;-84
2022/12/16 02:32:18;;;;;;;95.40;50.63;;;;;;;-3.42;100.00;66404.69;4990780;28;20567;-84
2022/12/16 02:34:58;;;;;;;88.22;49.08;;;;;;;-3.42;100.00;66404.69;4972321;28;20469;-84
2022/12/16 02:37:38;;;;;;;98.25;52.70;;;;;;;-3.42;100.00;66404.69;4997806;28;20050;-84
2022/12/16 02:40:29;;;;;;;92.78;53.05;;;;;;;-3.43;100.00;66404.13;4985885;28;20049;-83
2022/12/16 02:42:59;;;;;;;93.80;52.25;;;;;;;;;;4976576;28;20035;-84
2022/12/16 02:45:28;;;;;;;89.10;52.63;;;;;;;-3.43;100.00;66404.13;4987601;28;20046;-84
2022/12/16 02:47:54;;;;;;;;;;;;;;;-3.42;100.00;66407.28;4989138;28;20039;-84
2022/12/16 02:50:27;;;;;;;92.25;51.17;;;;;;;;;;4981765;28;19929;-84
2022/12/16 02:52:54;;;;;;;90.35;50.03;;;;;;;-3.50;100.00;66396.28;4990221;28;20038;-84
2022/12/16 02:55:28;;;;;;;72.57;39.28;;;;;;;-3.48;100.00;66403.72;4986614;28;20057;-84
2022/12/16 02:57:56;;;;;;;90.75;48.60;;;;;;;;;;4988566;28;20046;-84
2022/12/16 03:00:23;;;;;;;84.35;51.55;;;;;;;-3.42;100.00;66407.84;4987261;28;20038;-84
2022/12/16 03:03:05;;;;;;;84.95;47.30;;;;;;;-3.41;100.00;66406.38;4989744;28;20050;-83
2022/12/16 03:05:49;;;;;;;87.40;47.75;;;;;;;-3.40;100.00;66402.28;5004174;28;20053;-82
2022/12/16 03:08:21;;;;;;;84.35;48.72;;;;;;;-3.42;100.00;66407.28;5004920;28;20416;-83
2022/12/16 03:10:49;;;;;;;78.00;44.78;;;;;;;;;;4985565;28;20111;-84
2022/12/16 03:13:16;;;;;;;82.17;45.07;;;;;;;;;;4988672;28;20045;-84
2022/12/16 03:15:43;;;;;;;90.28;50.20;;;;;;;-3.36;100.00;66410.84;4990184;28;20062;-83
2022/12/16 03:18:10;;;;;;;80.72;44.88;;;;;;;-3.38;100.00;66409.16;4996821;28;20084;-83
2022/12/16 03:20:49;;;;;;;84.95;48.45;;;;;;;-3.37;100.00;66409.72;4998522;28;20051;-83
2022/12/16 03:23:21;;;;;;;82.03;46.53;;;;;;;-3.38;100.00;66408.63;4991169;28;20035;-83
2022/12/16 03:25:49;;;;;;;81.55;45.40;;;;;;;-3.38;100.00;66409.16;4986586;28;20490;-82
2022/12/16 03:28:35;;;;;;;93.82;49.72;;;;;;;-3.38;100.00;66416.41;4987614;28;20070;-84
2022/12/16 03:31:05;;;;;;;79.05;43.47;;;;;;;;;;4987367;28;20035;-84
2022/12/16 03:33:39;;;;;;;77.22;43.97;;;;;;;-3.38;100.00;66409.16;4988001;28;20061;-84
2022/12/16 03:36:31;;;;;;;82.50;46.88;;;;;;;;;;4985628;28;20072;-84
2022/12/16 03:38:58;;;;;;;76.80;37.95;;;;;;;-3.38;100.00;66411.22;4987561;28;20043;-85
2022/12/16 03:41:25;;;;;;;76.90;41.63;;;;;;;-3.39;100.00;66413.25;4985936;28;20178;-84
2022/12/16 03:43:51;;;;;;;80.80;48.42;;;;;;;-3.37;100.00;66412.31;4985188;28;20038;-84
2022/12/16 03:46:17;;;;;;;81.07;46.80;;;;;;;-3.34;100.00;66415.69;4979293;28;20693;-84
2022/12/16 03:48:50;;;;;;;82.90;45.60;;;;;;;-3.33;100.00;66416.81;4985852;28;20057;-84
2022/12/16 03:51:17;;;;;;;75.72;42.38;;;;;;;-3.37;100.00;66410.28;4986580;28;20046;-84
2022/12/16 03:53:43;;;;;;;78.93;45.80;;;;;;;-3.35;100.00;66412.53;4987118;28;20077;-84
2022/12/16 03:56:08;;;;;;;83.88;47.50;;;;;;;-3.32;100.00;66417.94;5000961;28;20070;-84
2022/12/16 03:58:38;;;;;;;78.32;43.80;;;;;;;;;;4988341;28;20046;-84
2022/12/16 04:01:04;;;;;;;72.47;38.67;;;;;;;-3.36;100.00;66416.06;4987821;28;20038;-84
2022/12/16 04:03:29;;;;;;;84.50;43.78;;;;;;;-3.35;100.00;66414.56;4985228;28;20046;-84
2022/12/16 04:05:55;;;;;;;84.32;47.65;;;;;;;-3.35;100.00;66417.19;4987655;28;20038;-84
2022/12/16 04:08:20;;;;;;;81.03;42.33;;;;;;;-3.38;100.00;66411.22;4986644;28;20034;-84
2022/12/16 04:24:30;;;;;;;85.88;48.55;;;;;;;-3.34;100.00;66418.28;4978498;28;20053;-84
2022/12/16 04:32:24;;;;;;;78.47;44.03;;;;;;;-3.34;100.00;66413.66;4983784;28;20049;-84
2022/12/16 04:34:51;;;;;;;84.40;45.92;;;;;;;-3.33;100.00;66414.22;4987868;28;20034;-84
